Time;durP1;ratioP1;P1;durP2;ratioP2;P2;SDS_P1;SDS_P2;PMS_P1;PMS_P2;Temp;Humidity;BMP_temperature;BMP_pressure;BME280_temperature;BME280_humidity;BME280_pressure;Samples;Min_cycle;Max_cycle;Signal;HPM_P1;HPM_P2
2023/04/27 00:00:37;;;;;;;8.00;7.80;;;19.20;54.90;;;;;;5073199;28;20530;-57
2023/04/27 00:03:06;;;;;;;8.30;8.10;;;19.20;54.90;;;;;;5072923;28;20475;-57
2023/04/27 00:05:35;;;;;;;8.30;8.10;;;19.20;54.90;;;;;;5072535;28;20493;-58
2023/04/27 00:08:02;;;;;;;7.73;7.53;;;19.10;54.80;;;;;;5072631;28;20435;-58
2023/04/27 00:10:28;;;;;;;8.17;7.97;;;19.20;54.90;;;;;;5072790;28;21012;-56
2023/04/27 00:12:55;;;;;;;8.80;8.50;;;19.20;54.90;;;;;;5072936;28;20954;-56
2023/04/27 00:15:22;;;;;;;8.63;8.33;;;19.20;54.90;;;;;;5072557;28;20546;-57
2023/04/27 00:17:50;;;;;;;8.73;8.53;;;19.20;54.90;;;;;;5072354;28;20530;-56
2023/04/27 00:20:19;;;;;;;9.03;8.73;;;19.20;54.90;;;;;;5072381;28;20453;-56
2023/04/27 00:22:46;;;;;;;7.73;7.53;;;19.20;54.90;;;;;;5072481;28;20455;-54
2023/04/27 00:25:13;;;;;;;8.47;8.27;;;19.10;54.80;;;;;;5075446;28;20569;-57
2023/04/27 00:27:40;;;;;;;7.93;7.73;;;19.10;54.70;;;;;;5052263;28;20547;-55
2023/04/27 00:30:08;;;;;;;8.50;8.30;;;19.10;54.70;;;;;;5052327;28;20961;-54
2023/04/27 00:32:35;;;;;;;8.10;7.80;;;19.10;54.70;;;;;;5052299;28;20527;-57
2023/04/27 00:35:02;;;;;;;8.13;7.97;;;19.10;54.80;;;;;;5066952;28;20549;-57
2023/04/27 00:37:30;;;;;;;7.83;7.63;;;19.10;54.80;;;;;;5090704;28;20484;-57
2023/04/27 00:39:57;;;;;;;8.40;8.20;;;19.10;54.70;;;;;;5092428;28;20450;-57
2023/04/27 00:42:24;;;;;;;8.40;8.20;;;19.10;54.70;;;;;;5092412;28;20519;-54
2023/04/27 00:44:51;;;;;;;8.30;8.00;;;19.10;54.70;;;;;;5079226;28;20518;-54
2023/04/27 00:47:18;;;;;;;8.40;8.00;;;19.00;54.60;;;;;;5087719;28;20526;-57
2023/04/27 00:49:44;;;;;;;7.80;7.60;;;19.00;54.70;;;;;;5092102;28;21000;-55
2023/04/27 00:52:11;;;;;;;8.50;8.30;;;19.00;54.70;;;;;;5092282;28;20537;-56
2023/04/27 00:54:40;;;;;;;8.63;8.33;;;19.00;54.70;;;;;;5081504;28;20546;-57
2023/04/27 00:57:07;;;;;;;9.13;8.63;;;19.00;54.70;;;;;;5071930;28;20986;-55
2023/04/27 00:59:34;;;;;;;8.63;8.33;;;19.00;54.70;;;;;;5072062;28;20443;-57
2023/04/27 01:02:01;;;;;;;8.40;8.10;;;19.00;54.70;;;;;;5071810;28;20486;-57
2023/04/27 01:04:30;;;;;;;8.27;8.07;;;19.00;54.70;;;;;;5080219;28;20569;-57
2023/04/27 01:06:57;;;;;;;8.30;8.00;;;19.00;54.70;;;;;;5078988;28;20455;-53
2023/04/27 01:09:24;;;;;;;8.27;8.07;;;19.00;54.70;;;;;;5071693;28;20868;-53
2023/04/27 01:11:52;;;;;;;7.23;7.13;;;19.00;54.80;;;;;;5071675;28;20924;-56
2023/04/27 01:14:19;;;;;;;8.10;7.90;;;18.90;54.80;;;;;;5071613;28;20495;-52
2023/04/27 01:16:47;;;;;;;8.07;7.87;;;18.90;54.80;;;;;;5071638;28;20852;-56
2023/04/27 01:19:14;;;;;;;7.97;7.77;;;18.90;54.80;;;;;;5071399;28;20466;-57
2023/04/27 01:21:41;;;;;;;8.03;7.87;;;18.90;54.90;;;;;;5071607;28;20534;-56
2023/04/27 01:24:10;;;;;;;7.97;7.77;;;18.90;54.80;;;;;;5089536;28;20521;-56
2023/04/27 01:26:36;;;;;;;7.60;7.40;;;18.90;54.80;;;;;;5091740;28;20450;-56
2023/04/27 01:29:03;;;;;;;7.63;7.43;;;18.90;54.80;;;;;;5091969;28;20482;-54
2023/04/27 01:31:30;;;;;;;8.60;8.30;;;18.90;54.80;;;;;;5091765;28;20477;-56
2023/04/27 01:33:57;;;;;;;8.20;8.00;;;18.90;54.80;;;;;;5090789;28;20466;-52
2023/04/27 01:36:24;;;;;;;8.73;8.43;;;18.90;54.80;;;;;;5094759;28;20884;-52
2023/04/27 01:38:51;;;;;;;7.50;7.30;;;18.90;54.80;;;;;;5098298;28;20707;-54
2023/04/27 01:41:19;;;;;;;7.83;7.63;;;18.90;54.80;;;;;;5089462;28;20530;-54
2023/04/27 01:43:46;;;;;;;7.93;7.73;;;18.90;54.80;;;;;;5077853;28;20475;-56
2023/04/27 01:46:14;;;;;;;7.97;7.77;;;18.90;54.70;;;;;;5078039;28;20913;-52
2023/04/27 01:48:41;;;;;;;8.30;8.10;;;18.80;54.70;;;;;;5078062;28;20447;-54
2023/04/27 01:51:08;;;;;;;7.90;7.70;;;18.80;54.70;;;;;;5078103;28;20980;-54
2023/04/27 01:53:35;;;;;;;7.90;7.70;;;18.80;54.60;;;;;;5077860;28;20810;-54
2023/04/27 01:56:02;;;;;;;8.40;8.20;;;18.80;54.60;;;;;;5077976;28;20867;-56
2023/04/27 01:58:31;;;;;;;7.50;7.30;;;18.80;54.60;;;;;;5077965;28;20465;-56
2023/04/27 02:00:58;;;;;;;9.53;9.33;;;18.80;54.60;;;;;;5078264;28;20479;-53
2023/04/27 02:03:25;;;;;;;8.70;8.40;;;18.80;54.60;;;;;;5077690;28;20475;-55
2023/04/27 02:05:52;;;;;;;7.63;7.47;;;18.80;54.60;;;;;;5077709;28;20561;-52
2023/04/27 02:08:19;;;;;;;7.70;7.50;;;18.80;54.60;;;;;;5077631;28;20876;-56
2023/04/27 02:10:46;;;;;;;8.80;8.40;;;18.80;54.60;;;;;;5094827;28;20478;-54
2023/04/27 02:13:13;;;;;;;8.00;7.80;;;18.80;54.60;;;;;;5097951;28;20525;-56
2023/04/27 02:15:41;;;;;;;8.00;7.80;;;18.80;54.60;;;;;;5098034;28;20545;-52
2023/04/27 02:18:08;;;;;;;8.40;8.20;;;18.80;54.60;;;;;;5097863;28;20516;-55
2023/04/27 02:20:34;;;;;;;7.80;7.70;;;18.80;54.60;;;;;;5095887;28;20435;-56
2023/04/27 02:23:02;;;;;;;7.87;7.73;;;18.70;54.60;;;;;;5098057;28;20449;-60
2023/04/27 02:25:29;;;;;;;7.50;7.40;;;18.80;54.60;;;;;;5098111;28;21000;-57
2023/04/27 02:27:56;;;;;;;8.13;7.90;;;18.70;54.50;;;;;;5097785;28;20447;-57
2023/04/27 02:30:23;;;;;;;8.40;8.17;;;18.70;54.50;;;;;;5097172;28;20488;-57
2023/04/27 02:32:51;;;;;;;8.33;8.13;;;18.70;54.60;;;;;;5097913;28;20516;-57
2023/04/27 02:35:18;;;;;;;8.60;8.30;;;18.70;54.60;;;;;;5097696;28;20860;-54
2023/04/27 02:37:45;;;;;;;9.50;9.30;;;18.70;54.60;;;;;;5097848;28;20537;-57
2023/04/27 02:40:12;;;;;;;8.20;8.00;;;18.70;54.60;;;;;;5096972;28;20522;-57
2023/04/27 02:42:39;;;;;;;8.47;8.27;;;18.70;54.60;;;;;;5098069;28;20510;-55
2023/04/27 02:45:07;;;;;;;9.33;9.03;;;18.70;54.60;;;;;;5097491;28;20572;-56
2023/04/27 02:47:35;;;;;;;7.80;7.70;;;18.70;54.60;;;;;;5096365;28;20809;-56
2023/04/27 02:50:04;;;;;;;7.67;7.50;;;18.70;54.60;;;;;;5084478;28;20471;-57
2023/04/27 02:52:31;;;;;;;8.33;8.13;;;18.70;54.60;;;;;;5074330;28;20490;-56
2023/04/27 02:54:58;;;;;;;8.30;8.10;;;18.70;54.60;;;;;;5074065;28;20646;-55
2023/04/27 02:57:25;;;;;;;8.03;7.83;;;18.70;54.60;;;;;;5074217;28;20534;-56
2023/04/27 02:59:51;;;;;;;8.30;8.10;;;18.70;54.60;;;;;;5074309;28;20535;-57
2023/04/27 03:02:18;;;;;;;8.70;8.50;;;18.70;54.60;;;;;;5092303;28;20485;-52
2023/04/27 03:04:45;;;;;;;8.60;8.40;;;18.60;54.50;;;;;;5094052;28;20564;-56
2023/04/27 03:07:13;;;;;;;8.50;8.30;;;18.60;54.50;;;;;;5093956;28;20530;-56
2023/04/27 03:09:40;;;;;;;10.40;10.20;;;18.60;54.50;;;;;;5053918;28;20862;-57
2023/04/27 03:12:07;;;;;;;8.93;8.73;;;18.60;54.50;;;;;;5053872;28;21005;-56
2023/04/27 03:14:34;;;;;;;8.97;8.70;;;18.60;54.50;;;;;;5053766;28;20496;-57
2023/04/27 03:17:02;;;;;;;8.47;8.27;;;18.60;54.40;;;;;;5053961;28;20536;-54
2023/04/27 03:19:29;;;;;;;7.83;7.63;;;18.60;54.40;;;;;;5072359;28;20455;-56
2023/04/27 03:21:55;;;;;;;8.47;8.27;;;18.60;54.40;;;;;;5073789;28;20535;-53
2023/04/27 03:24:24;;;;;;;7.77;7.57;;;18.60;54.50;;;;;;5073532;28;20494;-52
2023/04/27 03:26:52;;;;;;;8.77;8.57;;;18.60;54.40;;;;;;5073536;28;20479;-56
2023/04/27 03:29:18;;;;;;;8.50;8.23;;;18.60;54.40;;;;;;5090074;28;20450;-56
2023/04/27 03:31:45;;;;;;;8.93;8.63;;;18.60;54.40;;;;;;5093705;28;20529;-53
2023/04/27 03:34:12;;;;;;;8.90;8.70;;;18.60;54.40;;;;;;5093454;28;20493;-53
2023/04/27 03:36:39;;;;;;;8.00;7.80;;;18.60;54.40;;;;;;5093783;28;20530;-57
2023/04/27 03:39:06;;;;;;;7.83;7.73;;;18.60;54.30;;;;;;5078499;28;20792;-55
2023/04/27 03:41:35;;;;;;;8.00;7.80;;;18.60;54.30;;;;;;5073297;28;20455;-54
2023/04/27 03:44:02;;;;;;;8.27;7.90;;;18.60;54.30;;;;;;5073104;28;20521;-53
2023/04/27 03:46:28;;;;;;;8.10;7.90;;;18.50;54.20;;;;;;5075163;28;20475;-52
2023/04/27 03:48:55;;;;;;;8.50;8.20;;;18.50;54.20;;;;;;5082192;28;20482;-54
2023/04/27 03:51:22;;;;;;;8.50;8.30;;;18.50;54.20;;;;;;5073149;28;20522;-51
2023/04/27 03:53:49;;;;;;;8.70;8.50;;;18.50;54.10;;;;;;5072888;28;20467;-53
2023/04/27 03:56:16;;;;;;;8.83;8.53;;;18.50;54.10;;;;;;5073236;28;20447;-53
2023/04/27 03:58:45;;;;;;;8.70;8.50;;;18.50;54.20;;;;;;5072356;28;20534;-56
2023/04/27 04:01:13;;;;;;;9.50;9.20;;;18.50;54.20;;;;;;5072871;28;20803;-55
2023/04/27 04:03:40;;;;;;;8.77;8.57;;;18.50;54.20;;;;;;5072801;28;20447;-53
2023/04/27 04:06:07;;;;;;;8.90;8.70;;;18.50;54.20;;;;;;5088867;28;20559;-52
2023/04/27 04:08:34;;;;;;;9.00;8.80;;;18.50;54.20;;;;;;5072568;28;20475;-55
2023/04/27 04:11:01;;;;;;;9.20;8.90;;;18.50;54.20;;;;;;5072780;28;20946;-54
2023/04/27 04:13:28;;;;;;;8.80;8.60;;;18.50;54.10;;;;;;5072561;28;20531;-54
2023/04/27 04:16:03;;;;;;;9.47;9.23;;;18.50;54.10;;;;;;5087554;28;20475;-55
2023/04/27 04:18:30;;;;;;;9.07;8.87;;;18.50;54.10;;;;;;5092693;28;20477;-56
2023/04/27 04:20:57;;;;;;;9.33;9.13;;;18.50;54.10;;;;;;5092778;28;20489;-56
2023/04/27 04:23:24;;;;;;;9.00;8.73;;;18.50;54.10;;;;;;5092613;28;20533;-53
2023/04/27 04:25:51;;;;;;;9.00;8.70;;;18.50;54.20;;;;;;5091993;28;20890;-54
2023/04/27 04:28:18;;;;;;;8.73;8.53;;;18.50;54.20;;;;;;5092521;28;20450;-56
2023/04/27 04:30:45;;;;;;;9.07;8.80;;;18.40;54.20;;;;;;5092754;28;20525;-54
2023/04/27 04:33:13;;;;;;;9.03;8.70;;;18.40;54.20;;;;;;5085611;28;20475;-54
2023/04/27 04:35:41;;;;;;;8.70;8.50;;;18.40;54.20;;;;;;5072288;28;20499;-52
2023/04/27 04:38:08;;;;;;;9.10;8.80;;;18.40;54.30;;;;;;5072224;28;20451;-56
2023/04/27 04:40:36;;;;;;;8.30;8.10;;;18.40;54.30;;;;;;5072154;28;20917;-53
2023/04/27 04:43:02;;;;;;;9.83;9.43;;;18.50;54.40;;;;;;5077074;28;20445;-53
2023/04/27 04:45:29;;;;;;;11.30;10.73;;;18.50;54.80;;;;;;5091889;28;20478;-57
2023/04/27 04:47:56;;;;;;;11.53;10.67;;;18.50;56.00;;;;;;5052106;28;20451;-54
2023/04/27 04:50:25;;;;;;;11.87;10.93;;;18.50;58.20;;;;;;5052204;28;20484;-58
2023/04/27 04:52:52;;;;;;;16.90;11.07;;;18.50;60.30;;;;;;5056158;28;20496;-58
2023/04/27 04:55:19;;;;;;;14.27;12.23;;;18.50;62.70;;;;;;5078917;28;20493;-55
2023/04/27 04:57:46;;;;;;;11.57;10.50;;;18.60;65.30;;;;;;5086914;28;20446;-53
2023/04/27 05:00:14;;;;;;;13.83;10.60;;;18.60;69.20;;;;;;5071327;28;20530;-54
2023/04/27 05:02:41;;;;;;;13.17;10.80;;;18.60;69.50;;;;;;5071460;28;20444;-55
2023/04/27 05:05:09;;;;;;;12.33;10.30;;;18.60;70.60;;;;;;5071587;28;20467;-55
2023/04/27 05:07:37;;;;;;;12.73;11.60;;;18.60;70.10;;;;;;5071209;28;20475;-51
2023/04/27 05:10:04;;;;;;;12.10;11.00;;;18.60;69.70;;;;;;5071624;28;20885;-52
2023/04/27 05:12:31;;;;;;;10.13;9.53;;;18.60;69.80;;;;;;5071157;28;20991;-54
2023/04/27 05:14:58;;;;;;;11.63;10.90;;;18.60;69.90;;;;;;5071398;28;20885;-53
2023/04/27 05:17:26;;;;;;;13.30;10.63;;;18.60;68.50;;;;;;5071430;28;20973;-54
2023/04/27 05:19:52;;;;;;;12.03;10.80;;;18.60;68.70;;;;;;5071630;28;20890;-54
2023/04/27 05:22:19;;;;;;;11.60;10.80;;;18.60;67.70;;;;;;5071557;28;20443;-55
2023/04/27 05:24:48;;;;;;;10.33;9.73;;;18.60;67.20;;;;;;5071439;28;20520;-52
2023/04/27 05:27:14;;;;;;;12.33;11.40;;;18.60;67.10;;;;;;5071491;28;20926;-54
2023/04/27 05:29:42;;;;;;;10.87;10.27;;;18.60;66.40;;;;;;5071245;28;20534;-53
2023/04/27 05:32:09;;;;;;;10.93;10.13;;;18.60;66.10;;;;;;5071434;28;20447;-52
2023/04/27 05:34:36;;;;;;;12.07;10.47;;;18.60;65.80;;;;;;5071529;28;20459;-51
2023/04/27 05:37:03;;;;;;;10.30;9.70;;;18.60;65.40;;;;;;5071376;28;20456;-55
2023/04/27 05:39:30;;;;;;;10.70;10.00;;;18.50;64.90;;;;;;5071234;28;20544;-54
2023/04/27 05:41:58;;;;;;;10.37;9.37;;;18.60;64.60;;;;;;5071384;28;20444;-51
2023/04/27 05:44:27;;;;;;;10.27;9.47;;;18.60;64.20;;;;;;5071496;28;20514;-52
2023/04/27 05:46:54;;;;;;;9.90;9.23;;;18.60;63.90;;;;;;5071200;28;21038;-52
2023/04/27 05:49:22;;;;;;;9.80;9.20;;;18.60;63.50;;;;;;5071266;28;20956;-51
2023/04/27 05:51:49;;;;;;;11.67;10.93;;;18.50;63.30;;;;;;5071220;28;20455;-51
2023/04/27 05:54:16;;;;;;;9.97;9.37;;;18.50;63.00;;;;;;5071152;28;20467;-53
2023/04/27 05:56:43;;;;;;;10.73;9.97;;;18.50;62.80;;;;;;5071169;28;20467;-52
2023/04/27 05:59:11;;;;;;;10.93;9.97;;;18.50;62.50;;;;;;5071093;28;20451;-52
2023/04/27 06:01:38;;;;;;;11.03;10.30;;;18.50;62.30;;;;;;5071128;28;20482;-55
2023/04/27 06:04:05;;;;;;;10.07;9.53;;;18.50;62.10;;;;;;5071073;28;20473;-52
2023/04/27 06:06:32;;;;;;;10.67;10.10;;;18.50;62.10;;;;;;5071129;28;20479;-57
2023/04/27 06:09:00;;;;;;;10.53;9.87;;;18.50;61.80;;;;;;5071163;28;20439;-53
2023/04/27 06:11:27;;;;;;;9.97;9.50;;;18.50;61.60;;;;;;5071058;28;20446;-55
2023/04/27 06:13:54;;;;;;;10.40;9.77;;;18.50;61.50;;;;;;5070886;28;20499;-52
2023/04/27 06:16:23;;;;;;;11.20;10.60;;;18.50;61.30;;;;;;5071040;28;20526;-55
2023/04/27 06:18:50;;;;;;;10.40;9.90;;;18.50;61.10;;;;;;5070868;28;20453;-52
2023/04/27 06:21:17;;;;;;;11.03;10.40;;;18.50;61.00;;;;;;5070985;28;20867;-52
2023/04/27 06:23:43;;;;;;;9.97;9.47;;;18.50;60.70;;;;;;5074014;28;20495;-53
2023/04/27 06:26:10;;;;;;;9.80;9.30;;;18.40;60.50;;;;;;5074621;28;20561;-55
2023/04/27 06:28:38;;;;;;;10.17;9.77;;;18.50;60.40;;;;;;5074406;28;20547;-56
2023/04/27 06:31:05;;;;;;;11.63;10.93;;;18.50;60.30;;;;;;5074667;28;20447;-56
2023/04/27 06:33:34;;;;;;;9.60;9.33;;;18.50;60.20;;;;;;5074456;28;20451;-56
2023/04/27 06:36:01;;;;;;;10.50;10.03;;;18.50;60.10;;;;;;5074540;28;20527;-52
2023/04/27 06:38:28;;;;;;;10.30;9.90;;;18.50;59.90;;;;;;5074357;28;20451;-55
2023/04/27 06:40:55;;;;;;;11.13;10.53;;;18.50;59.80;;;;;;5074662;28;20443;-52
2023/04/27 06:43:22;;;;;;;10.87;10.20;;;18.50;59.80;;;;;;5074278;28;20451;-56
2023/04/27 06:45:49;;;;;;;10.40;9.90;;;18.50;59.70;;;;;;5074255;28;20538;-52
2023/04/27 06:48:16;;;;;;;10.73;10.00;;;18.50;59.60;;;;;;5074091;28;20511;-54
2023/04/27 06:50:45;;;;;;;9.40;9.10;;;18.50;59.50;;;;;;5074336;28;20726;-55
2023/04/27 06:53:12;;;;;;;10.60;10.00;;;18.50;59.40;;;;;;5074137;28;20490;-55
2023/04/27 06:55:39;;;;;;;10.40;10.00;;;18.50;59.30;;;;;;5074213;28;20494;-53
2023/04/27 06:58:06;;;;;;;10.17;9.67;;;18.50;59.20;;;;;;5074037;28;20948;-54
2023/04/27 07:00:33;;;;;;;10.13;9.53;;;18.50;59.20;;;;;;5074079;28;20868;-53
2023/04/27 07:03:01;;;;;;;10.50;9.87;;;18.40;59.10;;;;;;5074130;28;20518;-54
2023/04/27 07:05:28;;;;;;;10.57;10.17;;;18.50;59.10;;;;;;5073927;28;20528;-53
2023/04/27 07:07:56;;;;;;;11.03;10.63;;;18.40;58.90;;;;;;5073743;28;20522;-53
2023/04/27 07:10:23;;;;;;;10.13;9.73;;;18.50;58.90;;;;;;5074023;28;20534;-52
2023/04/27 07:12:50;;;;;;;10.53;10.20;;;18.50;58.90;;;;;;5073781;28;20478;-52
2023/04/27 07:15:17;;;;;;;10.90;10.50;;;18.50;58.90;;;;;;5073703;28;20803;-56
2023/04/27 07:17:43;;;;;;;11.00;10.60;;;18.50;58.80;;;;;;5073718;28;20435;-56
2023/04/27 07:20:13;;;;;;;10.10;9.60;;;18.40;58.70;;;;;;5073732;28;20906;-56
2023/04/27 07:22:40;;;;;;;9.47;9.17;;;18.40;58.70;;;;;;5073619;28;20447;-53
2023/04/27 07:25:09;;;;;;;10.43;9.77;;;18.50;58.60;;;;;;5073565;28;20568;-54
2023/04/27 07:27:36;;;;;;;9.27;9.00;;;18.40;58.50;;;;;;5073275;28;20534;-53
2023/04/27 07:30:03;;;;;;;9.50;9.20;;;18.40;58.50;;;;;;5073580;28;20485;-55
2023/04/27 07:32:30;;;;;;;10.57;10.17;;;18.40;58.50;;;;;;5073557;28;20451;-55
2023/04/27 07:34:57;;;;;;;10.43;9.87;;;18.40;58.40;;;;;;5072380;28;20554;-55
2023/04/27 07:37:24;;;;;;;10.10;9.70;;;18.40;58.40;;;;;;5073497;28;20439;-53
2023/04/27 07:39:51;;;;;;;10.10;9.80;;;18.40;58.30;;;;;;5073456;28;20478;-54
2023/04/27 07:42:21;;;;;;;10.10;9.77;;;18.40;58.20;;;;;;5073232;28;20451;-52
2023/04/27 07:44:49;;;;;;;10.00;9.70;;;18.40;58.20;;;;;;5073028;28;20471;-55
2023/04/27 07:47:16;;;;;;;10.97;10.53;;;18.40;58.20;;;;;;5073059;28;20487;-52
2023/04/27 07:49:44;;;;;;;11.30;10.60;;;18.40;58.60;;;;;;5073256;28;20461;-52
2023/04/27 07:52:11;;;;;;;9.50;9.27;;;18.40;58.10;;;;;;5073012;28;20458;-54
2023/04/27 07:54:39;;;;;;;9.90;9.47;;;18.40;58.00;;;;;;5073067;28;20875;-55
2023/04/27 07:57:08;;;;;;;10.40;9.90;;;18.40;57.90;;;;;;5072930;28;20954;-53
2023/04/27 07:59:37;;;;;;;9.90;9.60;;;18.40;58.00;;;;;;5072831;28;20444;-57
2023/04/27 08:02:04;;;;;;;10.40;10.10;;;18.40;57.90;;;;;;5073012;28;20498;-55
2023/04/27 08:04:31;;;;;;;10.20;9.73;;;18.40;57.90;;;;;;5072712;28;20467;-55
2023/04/27 08:06:58;;;;;;;9.80;9.50;;;18.40;57.90;;;;;;5072685;28;20594;-54
2023/04/27 08:09:25;;;;;;;9.67;9.20;;;18.40;57.80;;;;;;5072800;28;20522;-53
2023/04/27 08:11:52;;;;;;;9.90;9.50;;;18.40;57.80;;;;;;5072665;28;20448;-55
2023/04/27 08:14:19;;;;;;;10.27;9.77;;;18.40;57.70;;;;;;5072480;28;21017;-52
2023/04/27 08:16:47;;;;;;;9.80;9.40;;;18.40;58.20;;;;;;5072614;28;20529;-58
2023/04/27 08:19:14;;;;;;;10.33;9.93;;;18.40;57.70;;;;;;5072781;28;20448;-54
2023/04/27 08:21:41;;;;;;;9.30;9.00;;;18.40;57.60;;;;;;5072537;28;20447;-54
2023/04/27 08:24:08;;;;;;;9.57;9.00;;;18.40;57.60;;;;;;5072372;28;20923;-55
2023/04/27 08:26:35;;;;;;;9.87;9.57;;;18.40;57.60;;;;;;5072314;28;20933;-57
2023/04/27 08:29:02;;;;;;;10.07;9.67;;;18.40;57.50;;;;;;5072360;28;20451;-56
2023/04/27 08:31:29;;;;;;;10.47;10.17;;;18.40;57.50;;;;;;5072539;28;20542;-57
2023/04/27 08:33:58;;;;;;;9.47;9.07;;;18.40;57.40;;;;;;5072367;28;20524;-58
2023/04/27 08:36:26;;;;;;;9.80;9.50;;;18.40;57.40;;;;;;5072320;28;20451;-56
2023/04/27 08:38:53;;;;;;;9.27;8.97;;;18.40;57.40;;;;;;5071944;28;20447;-53
2023/04/27 08:41:21;;;;;;;9.07;8.77;;;18.40;57.30;;;;;;5072172;28;20538;-55
2023/04/27 08:43:49;;;;;;;8.63;8.33;;;18.40;57.30;;;;;;5071919;28;20475;-52
2023/04/27 08:46:19;;;;;;;8.93;8.73;;;18.40;57.30;;;;;;5072268;28;20435;-52
2023/04/27 08:48:46;;;;;;;9.80;9.40;;;18.40;57.30;;;;;;5071836;28;20448;-52
2023/04/27 08:51:16;;;;;;;10.17;9.80;;;18.40;57.30;;;;;;5071969;28;20451;-54
2023/04/27 08:53:49;;;;;;;9.97;9.63;;;18.40;57.30;;;;;;5071825;28;20450;-53
2023/04/27 08:56:16;;;;;;;9.70;9.30;;;18.30;57.10;;;;;;5071899;28;20537;-53
2023/04/27 08:58:43;;;;;;;10.10;9.70;;;18.30;57.10;;;;;;5071711;28;20537;-56
2023/04/27 09:01:10;;;;;;;9.67;9.00;;;18.40;57.20;;;;;;5071834;28;20475;-52
2023/04/27 09:03:37;;;;;;;9.40;9.20;;;18.30;57.10;;;;;;5071650;28;20486;-54
2023/04/27 09:06:05;;;;;;;9.40;9.20;;;18.30;57.00;;;;;;5071814;28;20447;-53
2023/04/27 09:08:44;;;;;;;9.10;8.80;;;18.30;57.00;;;;;;5071457;28;20588;-53
2023/04/27 09:11:12;;;;;;;10.07;9.77;;;18.40;57.10;;;;;;5071701;28;20482;-56
2023/04/27 09:13:40;;;;;;;9.67;9.43;;;18.30;57.50;;;;;;5071643;28;20526;-51
2023/04/27 09:16:07;;;;;;;9.80;9.40;;;18.30;57.00;;;;;;5071882;28;20438;-55
2023/04/27 09:18:36;;;;;;;10.40;10.10;;;18.30;56.90;;;;;;5071488;28;20519;-55
2023/04/27 09:21:04;;;;;;;9.97;9.57;;;18.30;56.90;;;;;;5071627;28;20519;-55
2023/04/27 09:23:32;;;;;;;10.13;9.83;;;18.30;56.90;;;;;;5071447;28;20854;-52
2023/04/27 09:26:02;;;;;;;10.07;9.77;;;18.30;56.90;;;;;;5071494;28;20482;-52
2023/04/27 09:28:31;;;;;;;10.20;9.80;;;18.30;56.80;;;;;;5071500;28;20514;-55
2023/04/27 09:30:59;;;;;;;10.77;10.47;;;18.30;56.80;;;;;;5071451;28;20816;-55
2023/04/27 09:33:27;;;;;;;11.17;10.57;;;18.30;56.80;;;;;;5071489;28;20475;-55
2023/04/27 09:35:55;;;;;;;10.93;10.63;;;18.30;56.80;;;;;;5071367;28;20526;-56
2023/04/27 09:38:23;;;;;;;9.90;9.70;;;18.30;56.80;;;;;;5071194;28;20446;-53
2023/04/27 09:40:50;;;;;;;9.23;9.03;;;18.30;56.80;;;;;;5071418;28;20483;-54
2023/04/27 09:43:19;;;;;;;10.30;10.00;;;18.30;56.80;;;;;;5071457;28;20482;-53
2023/04/27 09:45:46;;;;;;;10.53;10.20;;;18.30;56.80;;;;;;5071520;28;20502;-53
2023/04/27 09:48:13;;;;;;;9.33;9.13;;;18.30;56.70;;;;;;5071191;28;20569;-52
2023/04/27 09:50:43;;;;;;;10.50;10.20;;;18.30;56.70;;;;;;5071319;28;20447;-52
2023/04/27 09:53:12;;;;;;;10.13;9.83;;;18.30;56.70;;;;;;5071150;28;20443;-52
2023/04/27 09:55:43;;;;;;;10.37;9.97;;;18.40;56.70;;;;;;5071071;28;20459;-54
2023/04/27 09:58:33;;;;;;;9.87;9.57;;;18.30;56.60;;;;;;5073597;28;20439;-54
2023/04/27 10:01:06;;;;;;;10.20;9.90;;;18.40;56.70;;;;;;5075384;28;20530;-52
2023/04/27 10:03:41;;;;;;;9.23;8.93;;;18.30;56.60;;;;;;5075026;28;20439;-55
2023/04/27 10:06:50;;;;;;;10.20;10.00;;;18.30;56.60;;;;;;5075242;28;20558;-52
2023/04/27 10:09:22;;;;;;;10.17;9.77;;;18.30;56.50;;;;;;5074951;28;20999;-54
2023/04/27 10:11:50;;;;;;;9.83;9.60;;;18.40;56.60;;;;;;5075114;28;20526;-57
2023/04/27 10:14:20;;;;;;;10.00;9.70;;;18.30;56.50;;;;;;5074949;28;20474;-55
2023/04/27 10:16:55;;;;;;;10.53;10.23;;;18.40;56.60;;;;;;5074978;28;20444;-55
2023/04/27 10:19:23;;;;;;;10.10;9.70;;;18.40;56.50;;;;;;5075024;28;20439;-53
2023/04/27 10:21:56;;;;;;;10.50;10.10;;;18.40;56.50;;;;;;5074891;28;20530;-54
2023/04/27 10:24:35;;;;;;;10.40;9.80;;;18.40;56.50;;;;;;5074781;28;20555;-52
2023/04/27 10:27:05;;;;;;;9.00;8.80;;;18.40;56.50;;;;;;5074569;28;20443;-52
2023/04/27 10:29:38;;;;;;;9.40;9.20;;;18.40;56.40;;;;;;5074529;28;20546;-52
2023/04/27 10:32:11;;;;;;;9.43;9.23;;;18.40;56.40;;;;;;5074878;28;20854;-57
2023/04/27 10:34:38;;;;;;;9.30;9.10;;;18.40;56.40;;;;;;5074622;28;20550;-56
2023/04/27 10:37:07;;;;;;;10.83;10.53;;;18.40;56.30;;;;;;5074542;28;20478;-56
2023/04/27 10:39:38;;;;;;;9.67;9.47;;;18.40;56.30;;;;;;5074365;28;20938;-55
2023/04/27 10:42:06;;;;;;;9.80;9.50;;;18.40;56.20;;;;;;5074548;28;20450;-55
2023/04/27 10:44:35;;;;;;;9.30;9.10;;;18.40;56.20;;;;;;5074172;28;20470;-57
2023/04/27 10:47:13;;;;;;;8.63;8.43;;;18.40;56.20;;;;;;5074232;28;20857;-57
2023/04/27 10:49:40;;;;;;;10.53;10.23;;;18.40;56.10;;;;;;5074199;28;20525;-54
2023/04/27 10:52:07;;;;;;;9.83;9.43;;;18.40;56.10;;;;;;5074545;28;20439;-56
2023/04/27 10:54:34;;;;;;;9.30;9.00;;;18.40;56.10;;;;;;5074254;28;20486;-56
2023/04/27 10:57:06;;;;;;;9.40;9.20;;;18.50;56.20;;;;;;5074168;28;20494;-55
2023/04/27 10:59:33;;;;;;;9.23;8.93;;;18.50;56.10;;;;;;5073958;28;20475;-57
2023/04/27 11:02:00;;;;;;;10.50;10.00;;;18.50;56.10;;;;;;5073993;28;20982;-55
2023/04/27 11:04:40;;;;;;;9.80;9.50;;;18.50;56.00;;;;;;5074003;28;20546;-55
2023/04/27 11:07:08;;;;;;;9.50;9.30;;;18.50;56.00;;;;;;5073887;28;20449;-57
2023/04/27 11:09:36;;;;;;;8.83;8.63;;;18.50;56.00;;;;;;5072519;28;20442;-57
2023/04/27 11:12:05;;;;;;;9.13;8.90;;;18.50;56.00;;;;;;5073935;28;20478;-56
2023/04/27 11:14:33;;;;;;;9.63;9.43;;;18.40;56.00;;;;;;5073753;28;20542;-57
2023/04/27 11:17:01;;;;;;;8.93;8.73;;;18.50;56.00;;;;;;5073822;28;20522;-57
2023/04/27 11:19:29;;;;;;;9.20;8.90;;;18.40;55.90;;;;;;5073978;28;20442;-56
2023/04/27 11:22:03;;;;;;;10.20;10.00;;;18.40;55.90;;;;;;5073715;28;20447;-55
2023/04/27 11:24:30;;;;;;;9.30;9.10;;;18.50;55.90;;;;;;5073757;28;20534;-57
2023/04/27 11:26:57;;;;;;;9.10;8.90;;;18.50;55.90;;;;;;5073583;28;20526;-56
2023/04/27 11:29:24;;;;;;;9.50;9.30;;;18.50;55.90;;;;;;5073401;28;20578;-58
2023/04/27 11:31:52;;;;;;;9.80;9.60;;;18.50;55.90;;;;;;5073586;28;20545;-57
2023/04/27 11:34:20;;;;;;;8.80;8.60;;;18.50;55.90;;;;;;5073358;28;20472;-57
2023/04/27 11:36:58;;;;;;;8.87;8.67;;;18.50;55.80;;;;;;5073369;28;20451;-57
2023/04/27 11:39:28;;;;;;;8.77;8.57;;;18.50;55.80;;;;;;5073324;28;20497;-56
2023/04/27 11:41:55;;;;;;;9.50;9.30;;;18.50;55.80;;;;;;5073325;28;20443;-56
2023/04/27 11:44:27;;;;;;;9.67;9.47;;;18.50;55.70;;;;;;5073002;28;20562;-57
2023/04/27 11:46:54;;;;;;;10.03;9.73;;;18.50;55.60;;;;;;5132571;22;20501;-59
2023/04/27 11:49:20;;;;;;;10.10;9.90;;;18.50;55.60;;;;;;5093162;28;20562;-56
2023/04/27 11:51:47;;;;;;;10.13;9.83;;;18.60;55.70;;;;;;5093497;28;20854;-56
2023/04/27 11:54:14;;;;;;;10.30;10.00;;;18.60;55.60;;;;;;5093388;28;20525;-59
2023/04/27 11:56:44;;;;;;;9.20;9.00;;;18.60;55.60;;;;;;5093281;28;20519;-59
2023/04/27 11:59:21;;;;;;;9.53;9.33;;;18.60;55.60;;;;;;5093100;28;20480;-58
2023/04/27 12:01:48;;;;;;;9.17;8.97;;;18.60;55.50;;;;;;5093342;28;20811;-59
2023/04/27 12:04:15;;;;;;;9.37;9.17;;;18.60;55.50;;;;;;5093135;28;20988;-58
2023/04/27 12:06:42;;;;;;;9.27;9.07;;;18.60;55.50;;;;;;5093023;28;20984;-59
2023/04/27 12:09:10;;;;;;;9.73;9.53;;;18.60;55.50;;;;;;5092867;28;20564;-57
2023/04/27 12:11:37;;;;;;;9.63;9.43;;;18.60;55.50;;;;;;5093010;28;20470;-58
2023/04/27 12:14:06;;;;;;;9.37;9.17;;;18.60;55.40;;;;;;5092981;28;20488;-61
2023/04/27 12:16:32;;;;;;;9.03;8.83;;;18.60;55.40;;;;;;5092973;28;20470;-59
2023/04/27 12:19:00;;;;;;;9.70;9.50;;;18.60;55.40;;;;;;5092676;28;20481;-60
2023/04/27 12:21:27;;;;;;;10.00;9.80;;;18.60;55.40;;;;;;5092432;28;20503;-59
2023/04/27 12:23:54;;;;;;;9.90;9.70;;;18.60;55.40;;;;;;5092827;28;20533;-60
2023/04/27 12:26:21;;;;;;;9.17;8.97;;;18.60;55.90;;;;;;5092624;28;20545;-59
2023/04/27 12:28:48;;;;;;;8.67;8.47;;;18.60;55.30;;;;;;5092441;28;20513;-60
2023/04/27 12:31:21;;;;;;;9.30;9.10;;;18.60;55.40;;;;;;5092778;28;20515;-58
2023/04/27 12:33:49;;;;;;;9.17;8.97;;;18.70;55.50;;;;;;5092535;28;20625;-57
2023/04/27 12:36:16;;;;;;;9.00;8.80;;;18.70;55.40;;;;;;5092509;28;20842;-59
2023/04/27 12:38:43;;;;;;;9.40;9.10;;;18.70;55.40;;;;;;5092382;28;20470;-58
2023/04/27 12:41:10;;;;;;;9.67;9.47;;;18.70;55.40;;;;;;5092430;28;20447;-57
2023/04/27 12:43:39;;;;;;;8.77;8.57;;;18.70;55.30;;;;;;5092328;28;20529;-57